sensor_id;sensor_type;location;lat;lon;timestamp;temperature;humidity
78896;HTU21D;68284;59.124;37.910;2023-08-06T00:01:06;21.42;78.21
78896;HTU21D;68284;59.124;37.910;2023-08-06T00:03:37;21.42;78.25
78896;HTU21D;68284;59.124;37.910;2023-08-06T00:06:09;21.38;78.30
78896;HTU21D;68284;59.124;37.910;2023-08-06T00:08:41;21.36;78.42
78896;HTU21D;68284;59.124;37.910;2023-08-06T00:11:13;21.36;78.52
78896;HTU21D;68284;59.124;37.910;2023-08-06T00:13:44;21.34;78.54
78896;HTU21D;68284;59.124;37.910;2023-08-06T00:16:17;21.34;78.59
78896;HTU21D;68284;59.124;37.910;2023-08-06T00:18:48;21.33;78.66
78896;HTU21D;68284;59.124;37.910;2023-08-06T00:21:20;21.32;78.75
78896;HTU21D;68284;59.124;37.910;2023-08-06T00:23:53;21.34;78.84
78896;HTU21D;68284;59.124;37.910;2023-08-06T00:26:24;21.32;78.86
78896;HTU21D;68284;59.124;37.910;2023-08-06T00:28:57;21.32;78.94
78896;HTU21D;68284;59.124;37.910;2023-08-06T00:31:28;21.34;78.95
78896;HTU21D;68284;59.124;37.910;2023-08-06T00:34:00;21.35;78.98
78896;HTU21D;68284;59.124;37.910;2023-08-06T00:36:31;21.37;79.06
78896;HTU21D;68284;59.124;37.910;2023-08-06T00:39:02;21.39;79.09
78896;HTU21D;68284;59.124;37.910;2023-08-06T00:41:34;21.43;79.05
78896;HTU21D;68284;59.124;37.910;2023-08-06T00:44:06;21.47;78.95
78896;HTU21D;68284;59.124;37.910;2023-08-06T00:46:39;21.51;78.90
78896;HTU21D;68284;59.124;37.910;2023-08-06T00:49:11;21.57;78.80
78896;HTU21D;68284;59.124;37.910;2023-08-06T00:51:43;21.60;78.69
78896;HTU21D;68284;59.124;37.910;2023-08-06T00:54:40;21.64;78.69
78896;HTU21D;68284;59.124;37.910;2023-08-06T00:57:12;21.65;78.51
78896;HTU21D;68284;59.124;37.910;2023-08-06T00:59:44;21.68;78.55
78896;HTU21D;68284;59.124;37.910;2023-08-06T01:02:16;21.67;78.53
78896;HTU21D;68284;59.124;37.910;2023-08-06T01:04:48;21.69;78.54
78896;HTU21D;68284;59.124;37.910;2023-08-06T01:07:48;21.70;78.66
78896;HTU21D;68284;59.124;37.910;2023-08-06T01:11:00;21.72;78.75
78896;HTU21D;68284;59.124;37.910;2023-08-06T01:13:43;21.72;78.77
78896;HTU21D;68284;59.124;37.910;2023-08-06T01:16:20;21.74;78.87
78896;HTU21D;68284;59.124;37.910;2023-08-06T01:18:51;21.76;78.88
78896;HTU21D;68284;59.124;37.910;2023-08-06T01:21:23;21.78;78.91
78896;HTU21D;68284;59.124;37.910;2023-08-06T01:23:55;21.79;78.93
78896;HTU21D;68284;59.124;37.910;2023-08-06T01:29:27;21.78;79.08
78896;HTU21D;68284;59.124;37.910;2023-08-06T01:32:03;21.77;79.04
78896;HTU21D;68284;59.124;37.910;2023-08-06T01:34:37;21.79;79.11
78896;HTU21D;68284;59.124;37.910;2023-08-06T01:37:11;21.78;79.17
78896;HTU21D;68284;59.124;37.910;2023-08-06T01:39:42;21.82;79.26
78896;HTU21D;68284;59.124;37.910;2023-08-06T01:42:15;21.85;79.27
78896;HTU21D;68284;59.124;37.910;2023-08-06T01:44:46;21.87;79.25
78896;HTU21D;68284;59.124;37.910;2023-08-06T01:47:18;21.90;79.22
78896;HTU21D;68284;59.124;37.910;2023-08-06T01:49:50;21.93;79.16
78896;HTU21D;68284;59.124;37.910;2023-08-06T01:52:23;21.94;79.14
78896;HTU21D;68284;59.124;37.910;2023-08-06T01:54:56;21.98;79.10
78896;HTU21D;68284;59.124;37.910;2023-08-06T01:57:28;22.02;79.04
78896;HTU21D;68284;59.124;37.910;2023-08-06T01:59:59;22.06;78.90
78896;HTU21D;68284;59.124;37.910;2023-08-06T02:02:32;22.08;78.82
78896;HTU21D;68284;59.124;37.910;2023-08-06T02:05:05;22.12;78.78
78896;HTU21D;68284;59.124;37.910;2023-08-06T02:07:37;22.14;78.71
78896;HTU21D;68284;59.124;37.910;2023-08-06T02:10:08;22.18;78.66
78896;HTU21D;68284;59.124;37.910;2023-08-06T02:12:40;22.20;78.63
78896;HTU21D;68284;59.124;37.910;2023-08-06T02:15:11;22.24;78.56
78896;HTU21D;68284;59.124;37.910;2023-08-06T02:17:43;22.29;78.49
78896;HTU21D;68284;59.124;37.910;2023-08-06T02:20:15;22.35;78.40
78896;HTU21D;68284;59.124;37.910;2023-08-06T02:22:48;22.40;78.33
78896;HTU21D;68284;59.124;37.910;2023-08-06T02:25:19;22.47;78.19
78896;HTU21D;68284;59.124;37.910;2023-08-06T02:27:52;22.52;77.97
78896;HTU21D;68284;59.124;37.910;2023-08-06T02:30:23;22.56;77.88
78896;HTU21D;68284;59.124;37.910;2023-08-06T02:32:56;22.61;77.86
78896;HTU21D;68284;59.124;37.910;2023-08-06T02:35:28;22.68;77.72
78896;HTU21D;68284;59.124;37.910;2023-08-06T02:38:01;22.78;77.49
78896;HTU21D;68284;59.124;37.910;2023-08-06T02:40:34;22.86;77.29
78896;HTU21D;68284;59.124;37.910;2023-08-06T02:43:05;22.95;77.08
78896;HTU21D;68284;59.124;37.910;2023-08-06T02:45:37;23.05;76.84
78896;HTU21D;68284;59.124;37.910;2023-08-06T02:48:09;23.13;76.60
78896;HTU21D;68284;59.124;37.910;2023-08-06T02:50:41;23.22;76.31
78896;HTU21D;68284;59.124;37.910;2023-08-06T02:53:15;23.30;76.06
78896;HTU21D;68284;59.124;37.910;2023-08-06T02:55:48;23.37;75.81
78896;HTU21D;68284;59.124;37.910;2023-08-06T02:58:22;23.45;75.58
78896;HTU21D;68284;59.124;37.910;2023-08-06T03:01:04;23.51;75.41
78896;HTU21D;68284;59.124;37.910;2023-08-06T03:03:40;23.57;75.21
78896;HTU21D;68284;59.124;37.910;2023-08-06T03:06:13;23.67;74.93
78896;HTU21D;68284;59.124;37.910;2023-08-06T03:08:50;23.72;74.76
78896;HTU21D;68284;59.124;37.910;2023-08-06T03:11:22;23.82;74.60
78896;HTU21D;68284;59.124;37.910;2023-08-06T03:13:56;23.90;74.39
78896;HTU21D;68284;59.124;37.910;2023-08-06T03:16:28;23.96;74.23
78896;HTU21D;68284;59.124;37.910;2023-08-06T03:19:00;24.00;74.17
78896;HTU21D;68284;59.124;37.910;2023-08-06T03:21:34;24.06;74.10
78896;HTU21D;68284;59.124;37.910;2023-08-06T03:24:07;24.10;73.95
78896;HTU21D;68284;59.124;37.910;2023-08-06T03:26:40;24.12;73.84
78896;HTU21D;68284;59.124;37.910;2023-08-06T03:29:12;24.14;73.73
78896;HTU21D;68284;59.124;37.910;2023-08-06T03:31:43;24.15;73.67
78896;HTU21D;68284;59.124;37.910;2023-08-06T03:34:18;24.17;73.58
78896;HTU21D;68284;59.124;37.910;2023-08-06T03:36:54;24.16;73.51
78896;HTU21D;68284;59.124;37.910;2023-08-06T03:39:26;24.18;73.44
78896;HTU21D;68284;59.124;37.910;2023-08-06T03:41:58;24.21;73.38
78896;HTU21D;68284;59.124;37.910;2023-08-06T03:44:30;24.26;73.23
78896;HTU21D;68284;59.124;37.910;2023-08-06T03:47:02;24.28;73.06
78896;HTU21D;68284;59.124;37.910;2023-08-06T03:49:34;24.29;72.87
78896;HTU21D;68284;59.124;37.910;2023-08-06T03:52:06;24.30;72.79
78896;HTU21D;68284;59.124;37.910;2023-08-06T03:54:37;24.34;72.62
78896;HTU21D;68284;59.124;37.910;2023-08-06T03:57:10;24.35;72.52
78896;HTU21D;68284;59.124;37.910;2023-08-06T03:59:43;24.34;72.53
78896;HTU21D;68284;59.124;37.910;2023-08-06T04:02:14;24.35;72.49
78896;HTU21D;68284;59.124;37.910;2023-08-06T04:04:45;24.39;72.41
78896;HTU21D;68284;59.124;37.910;2023-08-06T04:07:17;24.46;72.27
78896;HTU21D;68284;59.124;37.910;2023-08-06T04:09:53;24.62;71.92
78896;HTU21D;68284;59.124;37.910;2023-08-06T04:12:26;24.84;71.46
78896;HTU21D;68284;59.124;37.910;2023-08-06T04:14:59;25.05;71.02
78896;HTU21D;68284;59.124;37.910;2023-08-06T04:17:31;25.25;70.68
78896;HTU21D;68284;59.124;37.910;2023-08-06T04:20:02;25.39;70.59
78896;HTU21D;68284;59.124;37.910;2023-08-06T04:22:34;25.50;70.45
78896;HTU21D;68284;59.124;37.910;2023-08-06T04:25:06;25.58;70.42
78896;HTU21D;68284;59.124;37.910;2023-08-06T04:27:39;25.66;70.39
78896;HTU21D;68284;59.124;37.910;2023-08-06T04:30:13;25.78;70.29
78896;HTU21D;68284;59.124;37.910;2023-08-06T04:32:46;25.95;69.88
78896;HTU21D;68284;59.124;37.910;2023-08-06T04:35:17;26.15;69.52
78896;HTU21D;68284;59.124;37.910;2023-08-06T04:37:49;26.35;69.12
78896;HTU21D;68284;59.124;37.910;2023-08-06T04:40:21;26.50;68.85
78896;HTU21D;68284;59.124;37.910;2023-08-06T04:42:53;26.60;68.54
78896;HTU21D;68284;59.124;37.910;2023-08-06T04:45:25;26.66;68.33
78896;HTU21D;68284;59.124;37.910;2023-08-06T04:47:57;26.75;68.18
78896;HTU21D;68284;59.124;37.910;2023-08-06T04:50:28;26.79;67.87
78896;HTU21D;68284;59.124;37.910;2023-08-06T04:53:00;26.81;67.62
78896;HTU21D;68284;59.124;37.910;2023-08-06T04:55:34;26.84;67.34
78896;HTU21D;68284;59.124;37.910;2023-08-06T04:58:06;26.93;67.13
78896;HTU21D;68284;59.124;37.910;2023-08-06T05:00:37;27.04;66.72
78896;HTU21D;68284;59.124;37.910;2023-08-06T05:03:09;27.15;66.33
78896;HTU21D;68284;59.124;37.910;2023-08-06T05:05:41;27.30;65.83
78896;HTU21D;68284;59.124;37.910;2023-08-06T05:08:15;27.42;65.69
78896;HTU21D;68284;59.124;37.910;2023-08-06T05:10:50;27.55;65.11
78896;HTU21D;68284;59.124;37.910;2023-08-06T05:13:21;27.70;64.45
78896;HTU21D;68284;59.124;37.910;2023-08-06T05:15:53;27.81;63.95
78896;HTU21D;68284;59.124;37.910;2023-08-06T05:18:25;27.93;63.47
78896;HTU21D;68284;59.124;37.910;2023-08-06T05:20:56;28.00;63.25
78896;HTU21D;68284;59.124;37.910;2023-08-06T05:23:28;28.06;63.05
78896;HTU21D;68284;59.124;37.910;2023-08-06T05:25:59;28.12;62.82
78896;HTU21D;68284;59.124;37.910;2023-08-06T05:28:31;28.16;62.66
78896;HTU21D;68284;59.124;37.910;2023-08-06T05:31:06;28.21;62.83
78896;HTU21D;68284;59.124;37.910;2023-08-06T05:33:37;28.26;62.45
78896;HTU21D;68284;59.124;37.910;2023-08-06T05:36:09;28.30;62.00
78896;HTU21D;68284;59.124;37.910;2023-08-06T05:38:40;28.33;61.68
78896;HTU21D;68284;59.124;37.910;2023-08-06T05:41:14;28.37;61.29
78896;HTU21D;68284;59.124;37.910;2023-08-06T05:43:45;28.39;60.57
78896;HTU21D;68284;59.124;37.910;2023-08-06T05:46:17;28.41;60.38
78896;HTU21D;68284;59.124;37.910;2023-08-06T05:48:48;28.43;59.90
78896;HTU21D;68284;59.124;37.910;2023-08-06T05:51:21;28.47;59.44
78896;HTU21D;68284;59.124;37.910;2023-08-06T05:53:52;28.49;59.19
78896;HTU21D;68284;59.124;37.910;2023-08-06T05:56:25;28.48;58.47
78896;HTU21D;68284;59.124;37.910;2023-08-06T05:58:56;28.43;58.38
78896;HTU21D;68284;59.124;37.910;2023-08-06T06:01:28;28.42;58.19
78896;HTU21D;68284;59.124;37.910;2023-08-06T06:03:59;28.41;57.95
78896;HTU21D;68284;59.124;37.910;2023-08-06T06:06:31;28.40;57.65
78896;HTU21D;68284;59.124;37.910;2023-08-06T06:09:02;28.40;57.22
78896;HTU21D;68284;59.124;37.910;2023-08-06T06:11:35;28.40;57.03
78896;HTU21D;68284;59.124;37.910;2023-08-06T06:14:07;28.42;56.90
78896;HTU21D;68284;59.124;37.910;2023-08-06T06:16:38;28.43;56.81
78896;HTU21D;68284;59.124;37.910;2023-08-06T06:19:11;28.45;56.78
78896;HTU21D;68284;59.124;37.910;2023-08-06T06:21:43;28.50;56.88
78896;HTU21D;68284;59.124;37.910;2023-08-06T06:24:15;28.57;56.87
78896;HTU21D;68284;59.124;37.910;2023-08-06T06:26:46;28.64;56.65
78896;HTU21D;68284;59.124;37.910;2023-08-06T06:29:18;28.68;56.57
78896;HTU21D;68284;59.124;37.910;2023-08-06T06:31:49;28.73;56.25
78896;HTU21D;68284;59.124;37.910;2023-08-06T06:34:21;28.77;56.23
78896;HTU21D;68284;59.124;37.910;2023-08-06T06:36:53;28.84;56.23
78896;HTU21D;68284;59.124;37.910;2023-08-06T06:39:24;28.88;56.05
78896;HTU21D;68284;59.124;37.910;2023-08-06T06:41:56;28.97;55.98
78896;HTU21D;68284;59.124;37.910;2023-08-06T06:44:36;29.03;55.34
78896;HTU21D;68284;59.124;37.910;2023-08-06T06:47:08;29.08;55.06
78896;HTU21D;68284;59.124;37.910;2023-08-06T06:49:40;29.17;54.94
78896;HTU21D;68284;59.124;37.910;2023-08-06T06:52:11;29.32;55.03
78896;HTU21D;68284;59.124;37.910;2023-08-06T06:54:43;29.49;54.33
78896;HTU21D;68284;59.124;37.910;2023-08-06T06:57:14;29.66;53.83
78896;HTU21D;68284;59.124;37.910;2023-08-06T06:59:46;29.86;53.29
78896;HTU21D;68284;59.124;37.910;2023-08-06T07:02:18;30.07;53.15
78896;HTU21D;68284;59.124;37.910;2023-08-06T07:04:50;30.21;52.98
78896;HTU21D;68284;59.124;37.910;2023-08-06T07:07:22;30.33;52.86
78896;HTU21D;68284;59.124;37.910;2023-08-06T07:09:55;30.50;52.23
78896;HTU21D;68284;59.124;37.910;2023-08-06T07:12:26;30.63;51.43
78896;HTU21D;68284;59.124;37.910;2023-08-06T07:14:58;30.77;50.60
78896;HTU21D;68284;59.124;37.910;2023-08-06T07:17:30;30.99;50.06
78896;HTU21D;68284;59.124;37.910;2023-08-06T07:20:01;31.28;49.49
78896;HTU21D;68284;59.124;37.910;2023-08-06T07:22:33;31.51;48.99
78896;HTU21D;68284;59.124;37.910;2023-08-06T07:25:05;31.70;48.47
78896;HTU21D;68284;59.124;37.910;2023-08-06T07:27:39;31.83;48.23
78896;HTU21D;68284;59.124;37.910;2023-08-06T07:30:11;31.88;47.76
78896;HTU21D;68284;59.124;37.910;2023-08-06T07:32:43;31.93;46.68
78896;HTU21D;68284;59.124;37.910;2023-08-06T07:35:15;31.98;46.33
78896;HTU21D;68284;59.124;37.910;2023-08-06T07:37:48;31.97;46.01
78896;HTU21D;68284;59.124;37.910;2023-08-06T07:40:20;31.96;45.72
78896;HTU21D;68284;59.124;37.910;2023-08-06T07:42:51;31.96;45.73
78896;HTU21D;68284;59.124;37.910;2023-08-06T07:45:25;32.03;45.78
78896;HTU21D;68284;59.124;37.910;2023-08-06T07:47:58;32.17;45.29
78896;HTU21D;68284;59.124;37.910;2023-08-06T07:50:29;32.27;45.16
78896;HTU21D;68284;59.124;37.910;2023-08-06T07:53:01;32.38;45.45
78896;HTU21D;68284;59.124;37.910;2023-08-06T07:55:37;32.41;45.30
78896;HTU21D;68284;59.124;37.910;2023-08-06T07:58:09;32.52;45.14
78896;HTU21D;68284;59.124;37.910;2023-08-06T08:00:40;32.63;45.10
78896;HTU21D;68284;59.124;37.910;2023-08-06T08:03:15;32.73;44.83
78896;HTU21D;68284;59.124;37.910;2023-08-06T08:05:47;32.78;44.78
78896;HTU21D;68284;59.124;37.910;2023-08-06T08:08:19;32.78;43.94
78896;HTU21D;68284;59.124;37.910;2023-08-06T08:10:51;32.81;43.85
78896;HTU21D;68284;59.124;37.910;2023-08-06T08:13:22;32.91;43.74
78896;HTU21D;68284;59.124;37.910;2023-08-06T08:15:58;32.97;43.56
78896;HTU21D;68284;59.124;37.910;2023-08-06T08:18:30;32.98;43.73
78896;HTU21D;68284;59.124;37.910;2023-08-06T08:21:05;33.02;44.11
78896;HTU21D;68284;59.124;37.910;2023-08-06T08:23:37;33.00;44.29
78896;HTU21D;68284;59.124;37.910;2023-08-06T08:26:11;32.99;44.43
78896;HTU21D;68284;59.124;37.910;2023-08-06T08:28:43;32.99;44.39
78896;HTU21D;68284;59.124;37.910;2023-08-06T08:31:14;33.02;44.60
78896;HTU21D;68284;59.124;37.910;2023-08-06T08:33:48;33.09;44.45
78896;HTU21D;68284;59.124;37.910;2023-08-06T08:36:20;33.19;44.28
78896;HTU21D;68284;59.124;37.910;2023-08-06T08:38:54;33.29;43.85
78896;HTU21D;68284;59.124;37.910;2023-08-06T08:41:29;33.31;42.87
78896;HTU21D;68284;59.124;37.910;2023-08-06T08:44:01;33.26;42.70
78896;HTU21D;68284;59.124;37.910;2023-08-06T08:46:35;33.18;42.61
78896;HTU21D;68284;59.124;37.910;2023-08-06T08:49:08;33.02;42.72
78896;HTU21D;68284;59.124;37.910;2023-08-06T08:51:43;32.96;42.50
78896;HTU21D;68284;59.124;37.910;2023-08-06T08:54:15;32.91;42.16
78896;HTU21D;68284;59.124;37.910;2023-08-06T08:56:48;32.88;41.68
78896;HTU21D;68284;59.124;37.910;2023-08-06T08:59:28;32.83;41.81
78896;HTU21D;68284;59.124;37.910;2023-08-06T09:02:00;32.81;41.93
78896;HTU21D;68284;59.124;37.910;2023-08-06T09:04:32;32.82;41.90
78896;HTU21D;68284;59.124;37.910;2023-08-06T09:07:05;32.81;41.55
78896;HTU21D;68284;59.124;37.910;2023-08-06T09:09:39;32.74;41.74
78896;HTU21D;68284;59.124;37.910;2023-08-06T09:12:14;32.62;42.00
78896;HTU21D;68284;59.124;37.910;2023-08-06T09:14:45;32.54;42.40
78896;HTU21D;68284;59.124;37.910;2023-08-06T09:17:17;32.54;42.44
78896;HTU21D;68284;59.124;37.910;2023-08-06T09:19:51;32.54;42.42
78896;HTU21D;68284;59.124;37.910;2023-08-06T09:22:34;32.58;42.26
78896;HTU21D;68284;59.124;37.910;2023-08-06T09:25:11;32.54;42.07
78896;HTU21D;68284;59.124;37.910;2023-08-06T09:27:46;32.47;42.02
78896;HTU21D;68284;59.124;37.910;2023-08-06T09:30:36;32.41;42.26
78896;HTU21D;68284;59.124;37.910;2023-08-06T09:33:10;32.26;42.63
78896;HTU21D;68284;59.124;37.910;2023-08-06T09:35:42;32.24;42.85
78896;HTU21D;68284;59.124;37.910;2023-08-06T09:38:14;32.28;42.93
78896;HTU21D;68284;59.124;37.910;2023-08-06T09:40:47;32.27;42.93
78896;HTU21D;68284;59.124;37.910;2023-08-06T09:43:19;32.32;43.06
78896;HTU21D;68284;59.124;37.910;2023-08-06T09:45:52;32.38;43.16
78896;HTU21D;68284;59.124;37.910;2023-08-06T09:48:24;32.41;43.29
78896;HTU21D;68284;59.124;37.910;2023-08-06T09:50:56;32.39;43.34
78896;HTU21D;68284;59.124;37.910;2023-08-06T09:53:33;32.37;43.52
78896;HTU21D;68284;59.124;37.910;2023-08-06T09:56:05;32.38;43.64
78896;HTU21D;68284;59.124;37.910;2023-08-06T09:58:37;32.41;43.61
78896;HTU21D;68284;59.124;37.910;2023-08-06T10:01:11;32.47;43.45
78896;HTU21D;68284;59.124;37.910;2023-08-06T10:03:44;32.58;43.32
78896;HTU21D;68284;59.124;37.910;2023-08-06T10:06:19;32.64;43.29
78896;HTU21D;68284;59.124;37.910;2023-08-06T10:08:52;32.75;43.19
78896;HTU21D;68284;59.124;37.910;2023-08-06T10:11:25;32.81;42.98
78896;HTU21D;68284;59.124;37.910;2023-08-06T10:14:05;32.87;42.58
78896;HTU21D;68284;59.124;37.910;2023-08-06T10:16:39;32.92;42.53
78896;HTU21D;68284;59.124;37.910;2023-08-06T10:19:12;32.99;42.52
78896;HTU21D;68284;59.124;37.910;2023-08-06T10:22:14;33.19;42.19
78896;HTU21D;68284;59.124;37.910;2023-08-06T10:24:56;33.37;41.69
78896;HTU21D;68284;59.124;37.910;2023-08-06T10:27:41;33.46;41.46
78896;HTU21D;68284;59.124;37.910;2023-08-06T10:30:31;33.52;41.65
78896;HTU21D;68284;59.124;37.910;2023-08-06T10:33:05;33.63;41.23
78896;HTU21D;68284;59.124;37.910;2023-08-06T10:38:22;33.95;40.62
78896;HTU21D;68284;59.124;37.910;2023-08-06T10:43:28;34.41;39.46
78896;HTU21D;68284;59.124;37.910;2023-08-06T10:45:58;34.74;39.02
78896;HTU21D;68284;59.124;37.910;2023-08-06T10:48:33;35.07;38.40
78896;HTU21D;68284;59.124;37.910;2023-08-06T10:51:00;35.39;37.83
78896;HTU21D;68284;59.124;37.910;2023-08-06T10:53:27;35.68;37.43
78896;HTU21D;68284;59.124;37.910;2023-08-06T10:55:54;35.95;36.86
78896;HTU21D;68284;59.124;37.910;2023-08-06T10:58:21;36.23;36.36
78896;HTU21D;68284;59.124;37.910;2023-08-06T11:00:49;36.57;35.82
78896;HTU21D;68284;59.124;37.910;2023-08-06T11:03:15;36.91;35.24
78896;HTU21D;68284;59.124;37.910;2023-08-06T11:05:49;37.27;34.69
78896;HTU21D;68284;59.124;37.910;2023-08-06T11:08:31;37.65;34.25
78896;HTU21D;68284;59.124;37.910;2023-08-06T11:11:15;38.11;33.54
78896;HTU21D;68284;59.124;37.910;2023-08-06T11:13:55;38.52;32.54
78896;HTU21D;68284;59.124;37.910;2023-08-06T11:16:26;38.80;31.78
78896;HTU21D;68284;59.124;37.910;2023-08-06T11:18:53;39.07;31.20
78896;HTU21D;68284;59.124;37.910;2023-08-06T11:21:21;39.36;30.74
78896;HTU21D;68284;59.124;37.910;2023-08-06T11:23:48;39.72;30.14
78896;HTU21D;68284;59.124;37.910;2023-08-06T11:26:20;40.14;29.53
78896;HTU21D;68284;59.124;37.910;2023-08-06T11:28:50;40.56;28.81
78896;HTU21D;68284;59.124;37.910;2023-08-06T11:31:21;40.91;28.36
78896;HTU21D;68284;59.124;37.910;2023-08-06T11:33:50;40.97;28.08
78896;HTU21D;68284;59.124;37.910;2023-08-06T11:36:31;41.13;27.91
78896;HTU21D;68284;59.124;37.910;2023-08-06T11:39:03;41.41;27.39
78896;HTU21D;68284;59.124;37.910;2023-08-06T11:41:32;41.73;27.12
78896;HTU21D;68284;59.124;37.910;2023-08-06T11:44:00;42.02;26.71
78896;HTU21D;68284;59.124;37.910;2023-08-06T11:46:28;42.30;26.26
78896;HTU21D;68284;59.124;37.910;2023-08-06T11:48:56;42.31;26.08
78896;HTU21D;68284;59.124;37.910;2023-08-06T11:51:26;42.08;26.36
78896;HTU21D;68284;59.124;37.910;2023-08-06T11:53:57;42.00;26.47
78896;HTU21D;68284;59.124;37.910;2023-08-06T11:56:25;41.70;26.75
78896;HTU21D;68284;59.124;37.910;2023-08-06T11:58:52;41.15;27.26
78896;HTU21D;68284;59.124;37.910;2023-08-06T12:01:20;40.46;28.13
78896;HTU21D;68284;59.124;37.910;2023-08-06T12:03:47;40.01;28.90
78896;HTU21D;68284;59.124;37.910;2023-08-06T12:06:16;39.92;29.47
78896;HTU21D;68284;59.124;37.910;2023-08-06T12:08:42;39.80;29.90
78896;HTU21D;68284;59.124;37.910;2023-08-06T12:11:09;39.82;29.91
78896;HTU21D;68284;59.124;37.910;2023-08-06T12:13:37;39.73;30.17
78896;HTU21D;68284;59.124;37.910;2023-08-06T12:16:05;39.43;30.39
78896;HTU21D;68284;59.124;37.910;2023-08-06T12:18:34;39.08;30.84
78896;HTU21D;68284;59.124;37.910;2023-08-06T12:21:00;38.94;31.28
78896;HTU21D;68284;59.124;37.910;2023-08-06T12:23:27;38.79;31.50
78896;HTU21D;68284;59.124;37.910;2023-08-06T12:25:53;38.59;31.66
78896;HTU21D;68284;59.124;37.910;2023-08-06T12:28:20;38.37;32.21
78896;HTU21D;68284;59.124;37.910;2023-08-06T12:30:46;38.16;32.65
78896;HTU21D;68284;59.124;37.910;2023-08-06T12:33:13;38.05;32.92
78896;HTU21D;68284;59.124;37.910;2023-08-06T12:35:39;38.06;33.01
78896;HTU21D;68284;59.124;37.910;2023-08-06T12:38:06;38.09;33.11
78896;HTU21D;68284;59.124;37.910;2023-08-06T12:40:32;38.18;33.20
78896;HTU21D;68284;59.124;37.910;2023-08-06T12:43:00;38.35;32.99
78896;HTU21D;68284;59.124;37.910;2023-08-06T12:45:26;38.59;32.79
78896;HTU21D;68284;59.124;37.910;2023-08-06T12:47:54;38.89;32.51
78896;HTU21D;68284;59.124;37.910;2023-08-06T12:50:20;39.23;31.75
78896;HTU21D;68284;59.124;37.910;2023-08-06T12:52:48;39.56;31.27
78896;HTU21D;68284;59.124;37.910;2023-08-06T12:55:14;39.91;30.53
78896;HTU21D;68284;59.124;37.910;2023-08-06T12:57:42;40.29;29.79
78896;HTU21D;68284;59.124;37.910;2023-08-06T13:00:09;40.59;29.42
78896;HTU21D;68284;59.124;37.910;2023-08-06T13:02:36;40.90;28.91
78896;HTU21D;68284;59.124;37.910;2023-08-06T13:05:05;41.20;28.32
78896;HTU21D;68284;59.124;37.910;2023-08-06T13:07:31;41.40;28.13
78896;HTU21D;68284;59.124;37.910;2023-08-06T13:09:58;41.56;27.77
78896;HTU21D;68284;59.124;37.910;2023-08-06T13:12:24;41.66;27.44
78896;HTU21D;68284;59.124;37.910;2023-08-06T13:14:51;41.93;26.92
78896;HTU21D;68284;59.124;37.910;2023-08-06T13:17:20;42.11;26.61
78896;HTU21D;68284;59.124;37.910;2023-08-06T13:19:46;42.23;26.44
78896;HTU21D;68284;59.124;37.910;2023-08-06T13:22:13;42.39;26.31
78896;HTU21D;68284;59.124;37.910;2023-08-06T13:24:40;42.59;25.94
78896;HTU21D;68284;59.124;37.910;2023-08-06T13:27:09;42.70;25.69
78896;HTU21D;68284;59.124;37.910;2023-08-06T13:29:36;42.80;25.49
78896;HTU21D;68284;59.124;37.910;2023-08-06T13:32:03;42.88;25.43
78896;HTU21D;68284;59.124;37.910;2023-08-06T13:34:35;42.93;25.33
78896;HTU21D;68284;59.124;37.910;2023-08-06T13:37:01;43.04;25.20
78896;HTU21D;68284;59.124;37.910;2023-08-06T13:39:28;43.11;24.97
78896;HTU21D;68284;59.124;37.910;2023-08-06T13:41:55;43.16;24.83
78896;HTU21D;68284;59.124;37.910;2023-08-06T13:44:24;43.12;24.75
78896;HTU21D;68284;59.124;37.910;2023-08-06T13:46:51;43.13;24.64
78896;HTU21D;68284;59.124;37.910;2023-08-06T13:49:17;43.08;24.67
78896;HTU21D;68284;59.124;37.910;2023-08-06T13:51:45;43.05;24.79
78896;HTU21D;68284;59.124;37.910;2023-08-06T13:54:14;43.13;24.73
78896;HTU21D;68284;59.124;37.910;2023-08-06T13:56:45;43.16;24.70
78896;HTU21D;68284;59.124;37.910;2023-08-06T13:59:12;43.16;24.65
78896;HTU21D;68284;59.124;37.910;2023-08-06T14:01:39;43.08;24.77
78896;HTU21D;68284;59.124;37.910;2023-08-06T14:04:06;43.02;24.99
78896;HTU21D;68284;59.124;37.910;2023-08-06T14:06:32;42.98;25.00
78896;HTU21D;68284;59.124;37.910;2023-08-06T14:08:59;42.88;25.05
78896;HTU21D;68284;59.124;37.910;2023-08-06T14:11:27;42.91;25.13
78896;HTU21D;68284;59.124;37.910;2023-08-06T14:14:01;43.02;25.09
78896;HTU21D;68284;59.124;37.910;2023-08-06T14:16:28;42.97;25.17
78896;HTU21D;68284;59.124;37.910;2023-08-06T14:18:54;42.89;25.23
78896;HTU21D;68284;59.124;37.910;2023-08-06T14:21:24;42.83;25.23
78896;HTU21D;68284;59.124;37.910;2023-08-06T14:23:52;42.80;25.23
78896;HTU21D;68284;59.124;37.910;2023-08-06T14:26:18;42.84;25.25
78896;HTU21D;68284;59.124;37.910;2023-08-06T14:28:46;42.91;25.07
78896;HTU21D;68284;59.124;37.910;2023-08-06T14:31:12;42.99;24.97
78896;HTU21D;68284;59.124;37.910;2023-08-06T14:33:39;42.95;24.89
78896;HTU21D;68284;59.124;37.910;2023-08-06T14:36:06;42.89;24.96
78896;HTU21D;68284;59.124;37.910;2023-08-06T14:38:33;42.91;24.87
78896;HTU21D;68284;59.124;37.910;2023-08-06T14:41:02;42.93;24.85
78896;HTU21D;68284;59.124;37.910;2023-08-06T14:43:29;42.91;24.88
78896;HTU21D;68284;59.124;37.910;2023-08-06T14:45:55;42.85;24.98
78896;HTU21D;68284;59.124;37.910;2023-08-06T14:48:22;42.85;25.01
78896;HTU21D;68284;59.124;37.910;2023-08-06T14:50:54;42.78;25.27
78896;HTU21D;68284;59.124;37.910;2023-08-06T14:53:23;42.75;25.33
78896;HTU21D;68284;59.124;37.910;2023-08-06T14:55:49;42.77;25.15
78896;HTU21D;68284;59.124;37.910;2023-08-06T14:58:16;42.79;25.10
78896;HTU21D;68284;59.124;37.910;2023-08-06T15:00:42;42.82;25.15
78896;HTU21D;68284;59.124;37.910;2023-08-06T15:03:12;42.94;25.17
78896;HTU21D;68284;59.124;37.910;2023-08-06T15:05:38;43.11;24.87
78896;HTU21D;68284;59.124;37.910;2023-08-06T15:08:06;43.33;24.62
78896;HTU21D;68284;59.124;37.910;2023-08-06T15:10:33;43.53;24.32
78896;HTU21D;68284;59.124;37.910;2023-08-06T15:13:04;43.66;24.14
78896;HTU21D;68284;59.124;37.910;2023-08-06T15:15:30;43.70;24.02
78896;HTU21D;68284;59.124;37.910;2023-08-06T15:17:59;43.74;23.98
78896;HTU21D;68284;59.124;37.910;2023-08-06T15:20:26;43.74;24.01
78896;HTU21D;68284;59.124;37.910;2023-08-06T15:22:54;43.69;23.97
78896;HTU21D;68284;59.124;37.910;2023-08-06T15:25:25;43.47;24.22
78896;HTU21D;68284;59.124;37.910;2023-08-06T15:27:54;43.23;24.41
78896;HTU21D;68284;59.124;37.910;2023-08-06T15:30:22;42.98;24.65
78896;HTU21D;68284;59.124;37.910;2023-08-06T15:32:49;42.79;24.91
78896;HTU21D;68284;59.124;37.910;2023-08-06T15:35:16;42.59;25.19
78896;HTU21D;68284;59.124;37.910;2023-08-06T15:37:43;42.43;25.50